Time;durP1;ratioP1;P1;durP2;ratioP2;P2;SDS_P1;SDS_P2;PMS_P1;PMS_P2;Temp;Humidity;BMP_temperature;BMP_pressure;BME280_temperature;BME280_humidity;BME280_pressure;Samples;Min_cycle;Max_cycle;Signal;HPM_P1;HPM_P2
2022/10/23 00:11:00;;;;;;;23.35;6.35;;;;;;;14.31;76.60;97728.22;4951582;28;20039;-75
2022/10/23 00:14:12;;;;;;;23.02;6.07;;;;;;;14.33;75.36;97712.88;4958025;28;20038;-76
2022/10/23 00:24:36;;;;;;;;;;;;;;;;;;;;;
2022/10/23 00:38:30;;;;;;;;;;;;;;;;;;;;;
2022/10/23 00:44:38;;;;;;;8.30;3.95;;;;;;;15.62;66.19;97748.69;4963428;28;20041;-76
2022/10/23 00:51:46;;;;;;;;;;;;;;;;;;;;;
2022/10/23 00:58:34;;;;;;;;;;;;;;;;;;;;;
2022/10/23 01:01:57;;;;;;;10.25;4.15;;;;;;;16.02;64.27;97709.47;5003707;28;20047;-76
2022/10/23 01:09:17;;;;;;;;;;;;;;;;;;;;;
2022/10/23 01:16:43;;;;;;;;;;;;;;;;;;;;;
2022/10/23 01:30:29;;;;;;;;;;;;;;;;;;;;;
2022/10/23 01:33:31;;;;;;;9.00;4.27;;;;;;;17.04;58.66;97706.34;4912284;29;20063;-75
2022/10/23 01:36:49;;;;;;;12.77;4.10;;;;;;;17.20;58.61;97726.50;4978022;28;20033;-76
2022/10/23 02:11:56;;;;;;;;;;;;;;;;;;;;;
2022/10/23 02:15:11;;;;;;;12.27;3.13;;;;;;;20.18;43.08;97650.91;4998268;28;20048;-76
2022/10/23 02:18:18;;;;;;;5.65;3.35;;;;;;;20.24;43.27;97648.41;5012307;28;20041;-76
2022/10/23 02:28:15;;;;;;;6.95;3.25;;;;;;;20.26;42.97;97642.88;5026541;28;20543;-74
2022/10/23 02:35:19;;;;;;;6.15;2.85;;;;;;;20.16;42.90;97652.91;4940684;28;20030;-75
2022/10/23 02:42:21;;;;;;;9.48;2.90;;;;;;;20.17;42.82;97660.06;4974218;28;20154;-75
2022/10/23 02:49:09;;;;;;;;;;;;;;;;;;;;;
2022/10/23 02:59:31;;;;;;;;;;;;;;;;;;;;;
2022/10/23 03:06:23;;;;;;;5.63;2.92;;;;;;;18.56;47.35;97669.25;5070197;28;20020;-75
2022/10/23 03:16:50;;;;;;;16.73;3.83;;;;;;;17.73;50.35;97689.41;4944647;28;20514;-76
2022/10/23 03:20:29;;;;;;;8.88;3.40;;;;;;;17.52;50.25;97683.16;4962268;28;20070;-76
2022/10/23 03:34:21;;;;;;;;;;;;;;;;;;;;;
2022/10/23 03:38:11;;;;;;;;;;;;;;;;;;;;;
2022/10/23 03:44:44;;;;;;;9.85;4.68;;;;;;;16.21;57.12;97739.34;4967071;28;20052;-77
2022/10/23 03:47:55;;;;;;;13.60;5.22;;;;;;;16.14;56.92;97757.03;4999812;28;20067;-76
2022/10/23 03:50:47;;;;;;;18.33;5.18;;;;;;;16.06;56.99;97747.81;5003617;28;20036;-76
2022/10/23 03:54:36;;;;;;;;;;;;;;;;;;;;;
2022/10/23 03:57:45;;;;;;;12.05;4.80;;;;;;;15.86;58.13;97775.56;4888326;29;20039;-76
2022/10/23 04:04:35;;;;;;;101.32;31.05;;;;;;;15.80;58.25;97773.34;4845573;29;20034;-75
2022/10/23 04:07:58;;;;;;;293.52;101.47;;;;;;;15.73;58.97;97781.06;4814792;29;20148;-75
2022/10/23 04:11:23;;;;;;;62.67;20.08;;;;;;;15.58;59.08;97776.88;4848619;29;20044;-75
2022/10/23 04:14:32;;;;;;;172.27;57.65;;;;;;;15.44;60.17;97777.06;4897702;29;20047;-75
2022/10/23 04:24:48;;;;;;;;;;;;;;;;;;;;;
2022/10/23 04:31:50;;;;;;;;;;;;;;;;;;;;;
2022/10/23 04:34:53;;;;;;;79.78;26.95;;;;;;;14.47;66.38;97809.59;4901493;29;20050;-76
2022/10/23 04:38:19;;;;;;;57.13;19.77;;;;;;;14.31;67.27;97819.72;4929777;28;20533;-75
2022/10/23 04:41:37;;;;;;;156.70;51.38;;;;;;;14.20;68.01;97830.41;5038755;28;20036;-74
2022/10/23 04:45:18;;;;;;;155.70;54.78;;;;;;;14.09;68.33;97844.59;5049163;28;20032;-75
2022/10/23 04:51:37;;;;;;;268.63;98.18;;;;;;;13.99;70.36;97858.84;5023958;28;20417;-74
2022/10/23 04:54:34;;;;;;;197.98;68.32;;;;;;;14.02;68.55;97858.63;4979194;28;20091;-74
2022/10/23 04:58:10;;;;;;;186.88;64.55;;;;;;;14.13;69.55;97885.59;5019997;28;20033;-75
2022/10/23 05:01:13;;;;;;;;;;;;;;;;;;;;;
2022/10/23 05:07:54;;;;;;;49.60;17.00;;;;;;;14.11;68.98;97895.63;5032749;28;20045;-77
2022/10/23 05:11:06;;;;;;;97.82;33.45;;;;;;;14.08;69.72;97907.47;5046390;28;20039;-76
2022/10/23 05:17:15;;;;;;;12.93;5.30;;;;;;;14.31;66.91;97930.03;5050153;28;20037;-75
2022/10/23 05:20:30;;;;;;;18.05;8.80;;;;;;;14.40;67.29;97950.94;5050376;28;20044;-75
2022/10/23 05:27:06;;;;;;;;;;;;;;;;;;;;;
2022/10/23 05:30:01;;;;;;;49.63;23.85;;;;;;;14.69;67.03;97929.16;5051828;28;20037;-76
2022/10/23 05:36:31;;;;;;;29.75;14.55;;;;;;;15.94;62.07;97970.94;5042007;28;20035;-75
2022/10/23 05:39:45;;;;;;;20.67;7.40;;;;;;;17.63;57.93;97993.34;5028123;28;20070;-76
2022/10/23 05:42:59;;;;;;;43.58;18.30;;;;;;;19.23;54.02;97978.44;5051339;28;20267;-77
2022/10/23 05:49:41;;;;;;;21.42;8.63;;;;;;;22.23;46.21;97950.19;5067858;28;20066;-76
2022/10/23 05:52:33;;;;;;;22.55;9.38;;;;;;;23.32;43.79;97937.75;5065943;28;20055;-76
2022/10/23 05:55:37;;;;;;;80.70;14.98;;;;;;;24.00;42.04;97928.38;5029278;28;20040;-76
2022/10/23 05:58:34;;;;;;;40.78;10.23;;;;;;;24.34;41.12;97936.44;5034169;28;20071;-77
2022/10/23 06:05:33;;;;;;;;;;;;;;;;;;;;;
2022/10/23 06:11:39;;;;;;;36.25;10.65;;;;;;;28.88;33.89;97913.72;4999450;28;20038;-78
2022/10/23 06:14:40;;;;;;;;;;;;;;;;;;;;;
2022/10/23 06:18:01;;;;;;;32.05;12.40;;;;;;;30.04;31.66;97921.13;5067119;28;20028;-76
2022/10/23 06:21:08;;;;;;;58.20;25.83;;;;;;;30.81;30.51;97913.16;4931817;29;20035;-76
2022/10/23 06:23:47;;;;;;;85.50;40.65;;;;;;;30.26;30.71;97894.19;4962414;28;20035;-77
2022/10/23 06:26:59;;;;;;;29.85;15.50;;;;;;;30.78;30.33;97899.75;4949840;28;20042;-76
2022/10/23 06:30:25;;;;;;;47.90;20.55;;;;;;;31.49;29.49;97897.94;4933608;28;20608;-77
2022/10/23 06:33:50;;;;;;;21.83;9.90;;;;;;;30.90;30.18;97888.91;4934885;28;20503;-75
2022/10/23 06:37:10;;;;;;;30.65;12.00;;;;;;;30.78;30.14;97890.63;4966444;28;20038;-76
2022/10/23 06:43:15;;;;;;;23.80;9.15;;;;;;;29.99;31.04;97880.34;5027402;28;20036;-79
2022/10/23 06:46:31;;;;;;;;;;;;;;;;;;;;;
2022/10/23 06:53:08;;;;;;;24.70;12.63;;;;;;;30.54;31.12;97890.22;5079595;28;20051;-78
2022/10/23 06:56:52;;;;;;;16.35;8.65;;;;;;;30.71;30.76;97892.53;5091300;28;20564;-76
2022/10/23 07:06:43;;;;;;;21.58;8.02;;;;;;;32.69;28.82;97916.44;5008225;28;20108;-78
2022/10/23 07:16:52;;;;;;;19.10;9.75;;;;;;;33.57;27.42;97911.50;4981003;28;20061;-78
2022/10/23 07:23:22;;;;;;;;;;;;;;;;;;;;;
2022/10/23 07:26:33;;;;;;;15.82;6.00;;;;;;;33.38;27.52;97907.06;5008604;28;20042;-76
2022/10/23 07:29:56;;;;;;;13.90;5.22;;;;;;;32.85;28.35;97910.34;5036463;28;20044;-78
2022/10/23 07:33:11;;;;;;;8.90;6.05;;;;;;;33.09;28.50;97914.19;4988503;28;20572;-78
2022/10/23 07:36:56;;;;;;;13.00;5.57;;;;;;;32.20;29.00;97892.28;5050139;28;20545;-78
2022/10/23 07:40:16;;;;;;;16.05;5.63;;;;;;;32.45;28.98;97906.16;5050095;28;20093;-77
2022/10/23 07:43:24;;;;;;;;;;;;;;;;;;;;;
2022/10/23 07:47:02;;;;;;;13.88;5.93;;;;;;;33.04;28.05;97911.22;5069220;28;20036;-78
2022/10/23 07:53:55;;;;;;;11.82;5.38;;;;;;;32.65;28.28;97896.66;4979231;28;20515;-76
2022/10/23 08:00:12;;;;;;;13.57;5.60;;;;;;;33.45;27.56;97908.66;5043091;28;20047;-76
2022/10/23 08:07:00;;;;;;;;;;;;;;;;;;;;;
2022/10/23 08:17:25;;;;;;;25.98;6.63;;;;;;;34.15;26.63;97882.16;4987813;28;20134;-79
2022/10/23 08:20:29;;;;;;;34.20;19.23;;;;;;;34.08;27.07;97886.97;5047583;28;20037;-76
2022/10/23 08:23:47;;;;;;;13.35;5.75;;;;;;;33.47;27.58;97889.03;5038715;28;20033;-77
2022/10/23 08:34:33;;;;;;;11.65;5.57;;;;;;;33.91;26.02;97882.28;4927539;28;20071;-77
2022/10/23 08:37:45;;;;;;;13.38;5.78;;;;;;;34.18;26.78;97897.50;5050903;28;20081;-78
2022/10/23 08:48:43;;;;;;;;;;;;;;;;;;;;;
2022/10/23 08:52:24;;;;;;;;;;;;;;;;;;;;;
2022/10/23 08:55:36;;;;;;;;;;;;;;;;;;;;;
2022/10/23 09:09:22;;;;;;;10.68;5.40;;;;;;;34.77;25.45;97894.66;4994358;28;20096;-77
2022/10/23 09:12:06;;;;;;;;;;;;;;;35.10;25.27;97902.44;5057216;28;20043;-78
2022/10/23 09:15:48;;;;;;;;;;;;;;;;;;;;;
2022/10/23 09:33:33;;;;;;;9.45;4.57;;;;;;;33.30;26.94;97868.50;5002900;28;20651;-77
2022/10/23 09:36:52;;;;;;;;;;;;;;;;;;;;;
2022/10/23 09:39:59;;;;;;;;;;;;;;;;;;;;;
2022/10/23 09:43:29;;;;;;;20.10;7.78;;;;;;;34.28;25.88;97858.88;5041813;28;20048;-78
2022/10/23 09:47:00;;;;;;;;;;;;;;;;;;;;;
2022/10/23 09:50:13;;;;;;;14.23;6.80;;;;;;;33.11;27.92;97862.09;5065610;28;20039;-77
2022/10/23 09:53:04;;;;;;;8.40;4.32;;;;;;;34.52;26.13;97866.19;5061272;28;20396;-78
2022/10/23 09:55:48;;;;;;;18.80;4.65;;;;;;;34.26;26.08;97856.34;5051018;28;20055;-77
2022/10/23 09:59:25;;;;;;;8.38;4.28;;;;;;;35.16;25.42;97875.59;5037493;28;20062;-77
2022/10/23 10:02:38;;;;;;;37.08;8.40;;;;;;;35.73;24.72;97863.53;5044008;28;20098;-77
2022/10/23 10:09:27;;;;;;;19.67;5.07;;;;;;;34.58;25.70;97845.75;4988618;28;20034;-78
2022/10/23 10:23:09;;;;;;;;;;;;;;;36.59;23.91;97845.69;4989634;28;20034;-75
2022/10/23 10:33:04;;;;;;;;;;;;;;;;;;;;;
2022/10/23 10:46:50;;;;;;;6.15;3.28;;;;;;;35.74;24.53;97811.47;4992391;28;20100;-79
2022/10/23 10:49:37;;;;;;;7.40;4.18;;;;;;;35.13;26.05;97806.53;4975029;28;20112;-78
2022/10/23 11:00:00;;;;;;;7.30;4.28;;;;;;;36.76;24.81;97810.25;5011393;28;20037;-78
2022/10/23 11:03:38;;;;;;;;;;;;;;;;;;;;;
2022/10/23 11:06:59;;;;;;;6.97;4.82;;;;;;;38.11;23.37;97829.16;5031145;28;20508;-78
2022/10/23 11:10:09;;;;;;;;;;;;;;;;;;;;;
2022/10/23 11:16:52;;;;;;;5.60;3.40;;;;;;;38.27;23.13;97802.19;4959958;28;20568;-78
2022/10/23 11:19:59;;;;;;;3.60;2.95;;;;;;;38.37;23.51;97802.28;4948733;28;20039;-77
2022/10/23 11:26:37;;;;;;;;;;;;;;;;;;;;;
2022/10/23 11:36:38;;;;;;;4.15;2.40;;;;;;;36.48;23.53;97754.56;5047374;28;20060;-78
2022/10/23 11:40:25;;;;;;;17.33;4.30;;;;;;;37.26;22.75;97764.66;5062309;28;20089;-78
2022/10/23 11:43:38;;;;;;;;;;;;;;;;;;;;;
2022/10/23 11:46:52;;;;;;;;;;;;;;;;;;;;;
2022/10/23 11:50:09;;;;;;;;;;;;;;;;;;;;;
2022/10/23 11:52:58;;;;;;;4.43;2.75;;;;;;;34.46;24.55;97724.53;5030191;28;20039;-79
2022/10/23 11:56:20;;;;;;;;;;;;;;;;;;;;;
2022/10/23 11:59:34;;;;;;;;;;;;;;;;;;;;;
2022/10/23 12:03:12;;;;;;;3.17;2.05;;;;;;;34.73;24.34;97723.81;5088376;28;20053;-78
2022/10/23 12:09:59;;;;;;;12.23;7.43;;;;;;;34.06;24.49;97700.22;5030486;28;20036;-78
2022/10/23 12:19:50;;;;;;;;;;;;;;;;;;;;;
2022/10/23 12:22:55;;;;;;;;;;;;;;;;;;;;;
2022/10/23 12:40:31;;;;;;;;;;;;;;;;;;;;;
2022/10/23 12:50:32;;;;;;;11.82;2.40;;;;;;;34.00;23.98;97717.00;5089490;28;20050;-78
2022/10/23 12:53:39;;;;;;;6.95;1.90;;;;;;;34.73;23.39;97723.00;5073231;28;20549;-79
2022/10/23 12:56:43;;;;;;;3.25;1.88;;;;;;;33.50;24.22;97719.28;5043101;28;20127;-79
2022/10/23 13:00:11;;;;;;;;;;;;;;;;;;;;;
2022/10/23 13:06:51;;;;;;;6.68;1.73;;;;;;;34.04;24.30;97721.00;5012060;28;20046;-78
2022/10/23 13:09:53;;;;;;;10.10;2.22;;;;;;;33.75;24.35;97719.97;5019846;28;20230;-77
2022/10/23 13:13:22;;;;;;;9.10;1.95;;;;;;;34.17;23.92;97720.81;4996700;28;20478;-78
2022/10/23 13:16:43;;;;;;;27.90;3.05;;;;;;;33.48;24.65;97713.94;5020737;28;20643;-77
2022/10/23 13:20:20;;;;;;;;;;;;;;;;;;;;;
2022/10/23 13:23:36;;;;;;;;;;;;;;;;;;;;;
2022/10/23 13:30:16;;;;;;;6.53;4.65;;;;;;;32.31;25.29;97713.44;5008749;28;20034;-77
2022/10/23 13:33:22;;;;;;;4.97;1.85;;;;;;;32.15;25.77;97714.88;4984971;28;20045;-78
2022/10/23 13:40:12;;;;;;;14.00;2.30;;;;;;;32.74;25.28;97723.44;5021190;28;20033;-78
2022/10/23 13:43:06;;;;;;;;;;;;;;;;;;;;;
2022/10/23 13:52:32;;;;;;;7.65;2.05;;;;;;;32.78;24.94;97734.06;4985708;28;20037;-78
2022/10/23 13:55:39;;;;;;;;;;;;;;;;;;;;;
2022/10/23 13:58:44;;;;;;;4.55;1.55;;;;;;;33.18;24.64;97732.53;5007490;28;20041;-78
2022/10/23 14:05:29;;;;;;;;;;;;;;;;;;;;;
2022/10/23 14:12:12;;;;;;;2.25;1.55;;;;;;;31.65;26.24;97714.84;4939629;29;20055;-77
2022/10/23 14:15:46;;;;;;;;;;;;;;;;;;;;;
2022/10/23 14:19:16;;;;;;;;;;;;;;;;;;;;;
2022/10/23 14:22:30;;;;;;;;;;;;;;;;;;;;;
2022/10/23 14:25:07;;;;;;;3.83;2.45;;;;;;;30.03;28.19;97727.06;5061155;28;20040;-75
2022/10/23 14:32:04;;;;;;;3.20;1.48;;;;;;;28.01;30.67;97725.19;4972778;28;20046;-76
2022/10/23 14:35:25;;;;;;;;;;;;;;;;;;;;;
2022/10/23 14:38:33;;;;;;;18.42;7.95;;;;;;;26.51;33.71;97732.59;5082981;28;20034;-76
2022/10/23 14:45:15;;;;;;;10.52;4.90;;;;;;;25.26;35.23;97742.31;5030266;28;20395;-76
2022/10/23 14:52:08;;;;;;;5.05;1.90;;;;;;;24.02;37.52;97745.06;4962697;28;20539;-76
2022/10/23 14:55:11;;;;;;;10.75;2.88;;;;;;;23.72;38.13;97755.69;4988899;28;20456;-76
2022/10/23 14:58:25;;;;;;;10.13;4.00;;;;;;;23.50;39.81;97761.00;5006998;28;20037;-75
2022/10/23 15:08:41;;;;;;;;;;;;;;;;;;;;;
2022/10/23 15:25:45;;;;;;;;;;;;;;;;;;;;;
2022/10/23 15:29:10;;;;;;;50.45;22.10;;;;;;;20.75;47.24;97807.38;5071506;28;20030;-76
2022/10/23 15:35:38;;;;;;;;;;;;;;;;;;;;;
2022/10/23 15:38:32;;;;;;;;;;;;;;;;;;;;;
2022/10/23 15:49:32;;;;;;;;;;;;;;;;;;;;;
2022/10/23 15:51:57;;;;;;;9.73;4.50;;;;;;;19.26;51.56;97842.53;5056789;28;20094;-76
2022/10/23 16:20:35;;;;;;;11.77;4.97;;;;;;;17.95;55.61;97879.69;5079026;28;20042;-87
2022/10/23 16:23:23;;;;;;;10.73;5.70;;;;;;;17.77;55.89;97880.28;5067491;28;20040;-86
2022/10/23 16:27:02;;;;;;;;;;;;;;;;;;;;;
2022/10/23 16:30:04;;;;;;;18.70;8.27;;;;;;;17.69;55.75;97888.19;5049031;28;20059;-86
2022/10/23 16:33:15;;;;;;;;;;;;;;;;;;;;;
2022/10/23 16:36:37;;;;;;;10.68;5.97;;;;;;;17.65;55.63;97883.19;5051486;28;20021;-88
2022/10/23 16:46:26;;;;;;;;;;;;;;;;;;;;;
2022/10/23 16:52:50;;;;;;;4.90;2.78;;;;;;;17.17;62.22;97920.56;5050625;28;20353;-75
2022/10/23 16:56:02;;;;;;;6.93;3.45;;;;;;;17.13;63.36;97930.78;5052386;28;20508;-75
2022/10/23 16:58:47;;;;;;;5.30;3.45;;;;;;;16.98;63.48;97920.38;5070545;28;20107;-75
2022/10/23 17:01:29;;;;;;;13.10;3.72;;;;;;;16.92;62.29;97919.00;5035054;28;20496;-75
2022/10/23 17:04:22;;;;;;;10.43;3.97;;;;;;;16.82;62.80;97915.34;5038656;28;20135;-75
2022/10/23 17:06:50;;;;;;;15.20;5.50;;;;;;;16.82;63.21;97914.50;5035623;28;20526;-76
2022/10/23 17:09:26;;;;;;;17.33;5.55;;;;;;;16.86;63.07;97932.19;5032791;28;20100;-75
2022/10/23 17:11:58;;;;;;;15.52;5.90;;;;;;;16.87;63.49;97937.44;5030758;28;20086;-74
2022/10/23 17:14:28;;;;;;;18.30;5.55;;;;;;;16.93;63.12;97944.19;5049820;28;20166;-75
2022/10/23 17:17:13;;;;;;;31.85;15.98;;;;;;;16.97;63.25;97957.34;5050027;28;20052;-75
2022/10/23 17:19:52;;;;;;;18.38;6.32;;;;;;;16.77;64.22;97949.97;5028484;28;20035;-76
2022/10/23 17:22:30;;;;;;;;;;;;;;;;;;;;;
2022/10/23 17:25:52;;;;;;;23.38;10.07;;;;;;;16.63;64.11;97926.78;5063522;28;20025;-86
2022/10/23 17:28:41;;;;;;;;;;;;;;;;;;;;;
2022/10/23 17:31:40;;;;;;;32.20;14.18;;;;;;;16.73;64.76;97960.16;5063145;28;20040;-75
2022/10/23 17:34:17;;;;;;;42.72;14.27;;;;;;;16.61;65.36;97961.13;5050146;28;20123;-73
2022/10/23 17:37:05;;;;;;;37.05;16.60;;;;;;;16.59;65.91;97965.81;5047996;28;20389;-74
2022/10/23 17:39:33;;;;;;;40.70;17.20;;;;;;;16.66;65.56;97983.25;5066933;28;20051;-74
2022/10/23 17:42:10;;;;;;;33.90;17.33;;;;;;;16.67;64.77;97976.84;5061938;28;20150;-73
2022/10/23 17:45:03;;;;;;;;;;;;;;;;;;;;;
2022/10/23 17:47:46;;;;;;;41.83;19.13;;;;;;;16.69;64.52;97991.13;5043570;28;20031;-74
2022/10/23 17:50:19;;;;;;;49.30;23.50;;;;;;;16.60;65.65;98002.66;5039627;28;20525;-75
2022/10/23 17:52:53;;;;;;;51.30;23.75;;;;;;;16.59;65.80;97995.53;5056359;28;20044;-74
2022/10/23 17:55:22;;;;;;;43.10;21.25;;;;;;;16.56;66.38;98000.31;5036097;28;20029;-74
2022/10/23 17:58:06;;;;;;;49.08;22.02;;;;;;;16.49;66.75;98008.00;5031168;28;20031;-75
2022/10/23 18:00:55;;;;;;;44.40;21.05;;;;;;;16.43;66.91;98007.59;5056058;28;20055;-76
2022/10/23 18:03:35;;;;;;;43.42;20.30;;;;;;;16.34;67.12;98017.28;5032762;28;20156;-79
2022/10/23 18:06:56;;;;;;;;;;;;;;;;;;;;;
2022/10/23 18:09:25;;;;;;;40.75;15.98;;;;;;;16.18;67.00;98014.91;5047893;28;20503;-80
2022/10/23 18:11:51;;;;;;;42.17;17.33;;;;;;;16.21;67.26;98021.94;5055083;28;20094;-79
2022/10/23 18:14:18;;;;;;;29.83;15.43;;;;;;;16.02;68.49;98018.94;5053090;28;20039;-76
2022/10/23 18:17:08;;;;;;;28.70;13.35;;;;;;;15.90;69.11;98027.94;5051509;28;20031;-76
2022/10/23 18:20:20;;;;;;;23.77;12.48;;;;;;;15.72;69.35;98019.38;5071699;28;20871;-76
2022/10/23 18:23:09;;;;;;;;;;;;;;;;;;;;;
2022/10/23 18:29:22;;;;;;;32.50;13.25;;;;;;;15.47;72.42;98036.53;5055671;28;20093;-75
2022/10/23 18:31:53;;;;;;;27.63;12.82;;;;;;;15.30;72.21;98034.19;5048831;28;20421;-75
2022/10/23 18:34:32;;;;;;;29.60;11.52;;;;;;;15.25;72.80;98041.75;5051857;28;20043;-75
2022/10/23 18:37:49;;;;;;;20.35;10.63;;;;;;;15.04;74.19;98037.94;5046246;28;20097;-76
2022/10/23 18:40:34;;;;;;;;;;;;;;;;;;;;;
2022/10/23 18:43:16;;;;;;;21.10;9.98;;;;;;;14.83;76.28;98050.22;5067353;28;20400;-76
2022/10/23 18:46:22;;;;;;;27.27;12.60;;;;;;;14.84;76.49;98063.59;5053218;28;20043;-76
2022/10/23 18:49:20;;;;;;;29.85;16.30;;;;;;;14.84;76.11;98068.97;5042425;28;20040;-76
2022/10/23 18:52:10;;;;;;;52.25;29.17;;;;;;;14.88;76.22;98083.09;5054219;28;20036;-74
2022/10/23 18:57:55;;;;;;;44.38;21.83;;;;;;;14.67;78.21;98081.91;5075621;28;20023;-76
2022/10/23 19:00:29;;;;;;;32.15;16.40;;;;;;;14.64;78.20;98083.81;5072271;28;20555;-75
2022/10/23 19:03:32;;;;;;;34.70;16.55;;;;;;;14.39;79.92;98075.75;5054780;28;20020;-75
2022/10/23 19:06:30;;;;;;;;;;;;;;;;;;;;;
2022/10/23 19:09:19;;;;;;;34.72;17.40;;;;;;;14.49;79.68;98100.19;5070476;28;20038;-74
2022/10/23 19:11:50;;;;;;;40.13;17.92;;;;;;;14.49;79.98;98095.66;5036233;28;20124;-75
2022/10/23 19:14:15;;;;;;;39.97;16.10;;;;;;;14.29;80.60;98093.44;5035437;28;20040;-81
2022/10/23 19:17:06;;;;;;;32.72;14.50;;;;;;;14.19;81.39;98097.72;5035609;28;20550;-75
2022/10/23 19:24:05;;;;;;;;;;;;;;;;;;;;;
2022/10/23 19:30:13;;;;;;;25.00;11.98;;;;;;;13.92;84.13;98102.28;5043598;28;20028;-76
2022/10/23 19:32:45;;;;;;;19.98;10.40;;;;;;;13.75;84.45;98107.91;5036323;28;20044;-76
2022/10/23 19:35:18;;;;;;;;;;;;;;;13.55;85.15;98101.13;5052194;28;20045;-76
2022/10/23 19:38:15;;;;;;;20.63;8.77;;;;;;;13.47;86.59;98103.47;5052105;28;20427;-76
2022/10/23 19:41:07;;;;;;;18.60;9.68;;;;;;;13.38;88.04;98114.81;5054109;28;20051;-76
2022/10/23 19:43:49;;;;;;;18.33;9.55;;;;;;;13.41;87.94;98120.00;5069046;28;20083;-74
2022/10/23 19:46:25;;;;;;;19.60;10.30;;;;;;;13.44;87.93;98120.63;5051477;28;20466;-75
2022/10/23 19:48:57;;;;;;;19.92;9.05;;;;;;;13.45;87.90;98130.44;5060967;28;20119;-76
2022/10/23 19:54:45;;;;;;;27.67;10.30;;;;;;;13.44;88.02;98131.38;5058346;28;20076;-76
2022/10/23 20:00:16;;;;;;;;;;;;;;;;;;;;;
2022/10/23 20:03:05;;;;;;;17.95;8.88;;;;;;;13.27;89.77;98153.09;5053035;28;20043;-77
2022/10/23 20:06:03;;;;;;;16.50;9.07;;;;;;;13.19;90.81;98154.56;5028225;28;20056;-76
2022/10/23 20:09:06;;;;;;;19.15;8.38;;;;;;;12.94;92.03;98148.00;5048982;28;20048;-76
2022/10/23 20:11:50;;;;;;;;;;;;;;;;;;;;;
2022/10/23 20:14:40;;;;;;;24.40;9.35;;;;;;;12.90;92.90;98157.19;5053048;28;20039;-76
2022/10/23 20:17:23;;;;;;;;;;;;;;;;;;;;;
2022/10/23 20:20:15;;;;;;;27.88;9.70;;;;;;;12.90;93.22;98177.78;5052610;28;20589;-76
2022/10/23 20:23:10;;;;;;;19.58;9.05;;;;;;;12.86;93.70;98178.94;5050825;28;20016;-76
2022/10/23 20:25:42;;;;;;;16.30;8.65;;;;;;;12.65;94.99;98156.06;5055060;28;20036;-76
2022/10/23 20:28:19;;;;;;;17.55;8.90;;;;;;;12.56;95.78;98164.69;5051221;28;20032;-75
2022/10/23 20:31:07;;;;;;;23.45;11.88;;;;;;;12.50;95.44;98161.41;5068604;28;20039;-75
2022/10/23 20:34:01;;;;;;;18.17;9.25;;;;;;;12.55;94.58;98169.19;5041264;28;20102;-76
2022/10/23 20:36:42;;;;;;;14.23;8.48;;;;;;;12.47;93.69;98169.66;5067119;28;20028;-76
2022/10/23 20:39:18;;;;;;;20.70;9.18;;;;;;;12.32;94.68;98169.69;5049915;28;20139;-75
2022/10/23 20:42:16;;;;;;;14.57;8.40;;;;;;;12.26;96.38;98178.97;5052532;28;20070;-76
2022/10/23 20:44:59;;;;;;;22.48;11.95;;;;;;;12.16;96.75;98174.22;5030838;28;20044;-75
2022/10/23 20:48:04;;;;;;;19.92;10.55;;;;;;;12.28;97.08;98185.09;5033164;28;20408;-76
2022/10/23 20:50:48;;;;;;;24.60;11.02;;;;;;;12.15;98.11;98165.31;5052228;28;20104;-76
2022/10/23 20:53:59;;;;;;;24.20;11.40;;;;;;;12.22;97.56;98185.47;5035364;28;20482;-76
2022/10/23 20:56:32;;;;;;;17.98;10.30;;;;;;;12.06;98.47;98187.28;5035719;28;20401;-76
2022/10/23 20:59:46;;;;;;;25.13;12.40;;;;;;;12.29;99.44;98202.06;5033347;28;20043;-76
2022/10/23 21:02:55;;;;;;;;;;;;;;;;;;;;;
2022/10/23 21:05:33;;;;;;;18.63;9.45;;;;;;;12.19;99.22;98204.41;5076871;28;20047;-77
2022/10/23 21:08:24;;;;;;;23.23;9.75;;;;;;;12.26;98.56;98203.13;5063406;28;20465;-76
2022/10/23 21:11:03;;;;;;;19.15;10.05;;;;;;;12.07;99.85;98190.84;5050293;28;20134;-77
2022/10/23 21:14:21;;;;;;;23.30;11.20;;;;;;;11.87;100.00;98195.53;5034393;28;20024;-76
2022/10/23 21:17:20;;;;;;;;;;;;;;;;;;;;;
2022/10/23 21:20:21;;;;;;;27.40;11.13;;;;;;;11.81;100.00;98189.69;5090881;28;20028;-76
2022/10/23 21:23:33;;;;;;;14.98;7.88;;;;;;;11.77;100.00;98201.50;5075533;28;20039;-75
2022/10/23 21:33:03;;;;;;;10.93;6.15;;;;;;;11.77;100.00;98210.41;5090945;28;20331;-75
2022/10/23 21:35:39;;;;;;;11.00;6.50;;;;;;;11.73;100.00;98202.63;5046505;28;20036;-75
2022/10/23 21:41:47;;;;;;;9.82;5.68;;;;;;;11.76;100.00;98197.09;5048231;28;20128;-74
2022/10/23 21:44:21;;;;;;;15.13;6.93;;;;;;;11.78;100.00;98200.56;5066379;28;20033;-75
2022/10/23 21:47:01;;;;;;;23.08;9.63;;;;;;;11.89;100.00;98203.50;5058098;28;20040;-75
2022/10/23 21:49:45;;;;;;;;;;;;;;;;;;;;;
2022/10/23 21:52:34;;;;;;;12.15;6.18;;;;;;;11.69;100.00;98207.25;5050198;28;20043;-75
2022/10/23 21:55:11;;;;;;;11.23;5.63;;;;;;;11.70;100.00;98209.03;5035908;28;20380;-76
2022/10/23 21:57:50;;;;;;;12.38;6.60;;;;;;;11.71;100.00;98210.78;5053557;28;20047;-76
2022/10/23 22:00:20;;;;;;;12.07;5.65;;;;;;;11.61;100.00;98209.50;5036120;28;20131;-76
2022/10/23 22:02:59;;;;;;;12.27;6.53;;;;;;;11.68;100.00;98221.63;5052922;28;20068;-76
2022/10/23 22:05:41;;;;;;;12.23;6.05;;;;;;;11.71;100.00;98215.25;5036326;28;20580;-76
2022/10/23 22:08:24;;;;;;;12.60;6.28;;;;;;;11.72;100.00;98217.84;5035903;28;20511;-75
2022/10/23 22:11:41;;;;;;;11.82;5.88;;;;;;;11.62;100.00;98226.44;5032950;28;20036;-76
2022/10/23 22:14:39;;;;;;;12.80;6.60;;;;;;;11.39;100.00;98211.63;5034635;28;20504;-76
2022/10/23 22:18:08;;;;;;;15.38;7.22;;;;;;;11.47;100.00;98220.13;5054885;28;20064;-78
2022/10/23 22:21:10;;;;;;;16.02;8.05;;;;;;;11.40;100.00;98219.59;5087063;28;20040;-75
2022/10/23 22:23:55;;;;;;;;;;;;;;;;;;;;;
2022/10/23 22:26:44;;;;;;;13.65;6.85;;;;;;;11.26;100.00;98222.13;5078422;28;20479;-76
2022/10/23 22:29:35;;;;;;;14.85;6.68;;;;;;;11.21;100.00;98221.53;5094310;28;20531;-76
2022/10/23 22:32:03;;;;;;;9.90;5.72;;;;;;;11.12;100.00;98216.66;5077165;28;20020;-76
2022/10/23 22:34:39;;;;;;;12.68;6.78;;;;;;;11.19;100.00;98226.13;5056370;28;20036;-76
2022/10/23 22:37:22;;;;;;;13.73;6.90;;;;;;;11.14;100.00;98220.13;5059278;28;20036;-75
2022/10/23 22:42:53;;;;;;;17.77;6.97;;;;;;;11.00;100.00;98214.66;5078794;28;20491;-75
2022/10/23 22:45:35;;;;;;;11.00;5.15;;;;;;;11.01;100.00;98221.75;5059419;28;20367;-75
2022/10/23 22:51:35;;;;;;;9.95;5.20;;;;;;;11.24;100.00;98231.22;5078828;28;20471;-75
2022/10/23 22:54:41;;;;;;;9.50;5.15;;;;;;;11.26;100.00;98235.53;5054390;28;20408;-75
2022/10/23 22:57:32;;;;;;;7.03;4.25;;;;;;;11.18;100.00;98236.88;5057166;28;20094;-75
2022/10/23 23:00:33;;;;;;;7.75;4.57;;;;;;;11.00;100.00;98227.16;5066830;28;20024;-74
2022/10/23 23:03:18;;;;;;;9.30;4.55;;;;;;;10.98;100.00;98234.41;5059715;28;20508;-75
2022/10/23 23:05:54;;;;;;;11.30;4.85;;;;;;;10.99;100.00;98220.94;5061588;28;20127;-75
2022/10/23 23:08:31;;;;;;;9.02;4.40;;;;;;;10.88;100.00;98217.97;5074497;28;20498;-75
2022/10/23 23:11:21;;;;;;;6.68;3.90;;;;;;;10.91;100.00;98228.53;5060041;28;20016;-76
2022/10/23 23:14:22;;;;;;;7.93;4.53;;;;;;;10.96;100.00;98230.94;5052224;28;20024;-77
2022/10/23 23:16:59;;;;;;;8.05;3.97;;;;;;;11.02;100.00;98231.47;5071615;28;20055;-76
2022/10/23 23:19:51;;;;;;;10.77;4.57;;;;;;;11.13;100.00;98238.97;5057842;28;20458;-75
2022/10/23 23:22:33;;;;;;;9.85;4.95;;;;;;;10.97;100.00;98227.31;5093597;28;20046;-75
2022/10/23 23:25:16;;;;;;;8.90;4.90;;;;;;;10.92;100.00;98235.56;5076437;28;20416;-75
2022/10/23 23:27:52;;;;;;;8.48;4.93;;;;;;;10.78;100.00;98232.78;5056737;28;20115;-76
2022/10/23 23:30:50;;;;;;;7.88;5.10;;;;;;;10.69;100.00;98238.59;5057243;28;20458;-75
2022/10/23 23:33:38;;;;;;;12.50;5.65;;;;;;;10.76;100.00;98245.38;5056370;28;20035;-75
2022/10/23 23:36:37;;;;;;;10.15;5.90;;;;;;;10.72;100.00;98243.78;5075110;28;20110;-75
2022/10/23 23:39:45;;;;;;;10.75;5.18;;;;;;;10.70;100.00;98234.97;5074953;28;20498;-75
2022/10/23 23:42:50;;;;;;;;;;;;;;;;;;;;;
2022/10/23 23:45:47;;;;;;;11.93;5.95;;;;;;;10.73;100.00;98242.84;5092907;28;20398;-76
2022/10/23 23:48:49;;;;;;;;;;;;;;;;;;;;;
2022/10/23 23:51:37;;;;;;;10.07;5.35;;;;;;;10.68;100.00;98239.53;5070648;28;20048;-76
2022/10/23 23:54:10;;;;;;;9.30;4.20;;;;;;;10.61;100.00;98241.66;5058293;28;20479;-76
2022/10/23 23:59:53;;;;;;;9.63;4.40;;;;;;;10.66;100.00;98238.75;5078446;28;20040;-77
